Time;durP1;ratioP1;P1;durP2;ratioP2;P2;SDS_P1;SDS_P2;PMS_P1;PMS_P2;Temp;Humidity;BMP_temperature;BMP_pressure;BME280_temperature;BME280_humidity;BME280_pressure;Samples;Min_cycle;Max_cycle;Signal;HPM_P1;HPM_P2
2022/11/02 00:01:40;;;;;;;93.15;49.75;;;;;;;14.81;100.00;101392.16;5025591;28;20099;-85
2022/11/02 00:04:05;;;;;;;;;;;;;;;14.74;100.00;101395.53;5021757;28;20045;-84
2022/11/02 00:06:31;;;;;;;91.80;49.72;;;;;;;14.71;100.00;101396.66;5027625;28;19994;-86
2022/11/02 00:08:56;;;;;;;91.00;49.33;;;;;;;14.71;100.00;101395.81;5016816;28;20029;-85
2022/11/02 00:11:21;;;;;;;81.05;46.63;;;;;;;14.67;100.00;101399.72;5000391;28;23147;-84
2022/11/02 00:13:47;;;;;;;82.13;47.63;;;;;;;14.60;100.00;101399.50;5019581;28;20038;-84
2022/11/02 00:16:16;;;;;;;85.18;48.15;;;;;;;14.53;100.00;101401.06;5037609;28;20057;-85
2022/11/02 00:18:44;;;;;;;93.45;52.10;;;;;;;14.46;100.00;101402.63;5012022;28;20545;-87
2022/11/02 00:21:11;;;;;;;86.70;49.33;;;;;;;14.43;100.00;101397.69;5030372;28;20053;-84
2022/11/02 00:23:37;;;;;;;86.68;49.65;;;;;;;14.41;100.00;101404.84;5059340;28;20369;-85
2022/11/02 00:26:03;;;;;;;90.38;49.55;;;;;;;14.36;100.00;101405.28;5045807;28;20099;-86
2022/11/02 00:28:29;;;;;;;88.47;49.13;;;;;;;14.32;100.00;101410.94;5043203;28;20060;-86
2022/11/02 00:30:55;;;;;;;103.22;50.85;;;;;;;14.28;100.00;101411.25;5037754;28;20087;-87
2022/11/02 00:33:20;;;;;;;103.63;52.92;;;;;;;14.28;100.00;101411.25;5048067;28;20032;-87
2022/11/02 00:35:46;;;;;;;105.95;51.83;;;;;;;14.27;100.00;101412.22;5055289;28;20025;-87
2022/11/02 00:38:11;;;;;;;94.82;50.30;;;;;;;14.28;100.00;101421.72;5048988;28;20192;-86
2022/11/02 00:40:37;;;;;;;95.05;50.95;;;;;;;14.28;100.00;101421.72;5044726;28;20424;-87
2022/11/02 00:43:03;;;;;;;89.90;50.25;;;;;;;14.24;100.00;101430.00;5040689;28;20033;-86
2022/11/02 00:45:28;;;;;;;94.70;49.85;;;;;;;14.20;100.00;101424.25;5018655;28;20223;-86
2022/11/02 00:47:53;;;;;;;89.22;48.53;;;;;;;14.17;100.00;101428.97;5046419;28;20029;-86
2022/11/02 00:50:19;;;;;;;86.68;47.55;;;;;;;14.16;100.00;101433.38;5021594;28;20024;-87
2022/11/02 00:52:44;;;;;;;88.55;47.50;;;;;;;14.17;100.00;101423.72;5040196;28;20032;-86
2022/11/02 00:55:10;;;;;;;83.32;45.85;;;;;;;14.17;100.00;101426.34;5040824;28;20533;-86
2022/11/02 00:57:38;;;;;;;99.53;51.83;;;;;;;14.21;100.00;101420.66;5044238;28;20095;-87
2022/11/02 01:00:05;;;;;;;94.43;49.33;;;;;;;14.23;100.00;101429.19;5040897;28;20020;-86
2022/11/02 01:02:34;;;;;;;92.53;50.38;;;;;;;14.30;100.00;101418.97;5032689;28;20020;-86
2022/11/02 01:04:59;;;;;;;90.43;47.63;;;;;;;14.33;100.00;101425.72;5040156;28;20101;-85
2022/11/02 01:07:26;;;;;;;90.60;48.58;;;;;;;14.33;100.00;101420.47;5049354;28;20029;-86
2022/11/02 01:09:52;;;;;;;95.85;48.88;;;;;;;14.33;100.00;101417.84;5041176;28;20044;-85
2022/11/02 01:12:17;;;;;;;95.85;50.92;;;;;;;14.36;100.00;101422.78;5035625;28;20083;-85
2022/11/02 01:14:45;;;;;;;85.22;46.75;;;;;;;14.40;100.00;101418.91;5037747;28;20033;-85
2022/11/02 01:17:10;;;;;;;81.68;46.35;;;;;;;14.42;100.00;101419.63;5042969;28;20031;-85
2022/11/02 01:19:36;;;;;;;77.22;43.40;;;;;;;14.44;100.00;101415.88;5023646;28;20172;-85
2022/11/02 01:22:01;;;;;;;87.63;47.53;;;;;;;14.44;100.00;101415.88;5036111;28;20500;-84
2022/11/02 01:24:27;;;;;;;82.60;46.40;;;;;;;14.45;100.00;101412.28;5029457;28;20075;-85
2022/11/02 01:26:52;;;;;;;78.70;45.72;;;;;;;14.41;100.00;101410.94;5043047;28;20589;-85
2022/11/02 01:29:18;;;;;;;77.35;44.75;;;;;;;14.40;100.00;101405.81;5044324;28;20032;-85
2022/11/02 01:31:44;;;;;;;80.22;44.42;;;;;;;14.40;100.00;101411.03;5053814;28;20032;-85
2022/11/02 01:34:10;;;;;;;86.35;46.97;;;;;;;14.38;100.00;101413.00;5050995;28;20354;-85
2022/11/02 01:36:36;;;;;;;84.68;45.80;;;;;;;14.34;100.00;101409.00;5028051;28;20388;-85
2022/11/02 01:39:01;;;;;;;82.28;45.47;;;;;;;14.33;100.00;101408.19;5045626;28;20025;-84
2022/11/02 01:41:27;;;;;;;84.55;44.85;;;;;;;14.29;100.00;101407.66;5042703;28;20025;-84
2022/11/02 01:44:00;;;;;;;88.07;44.92;;;;;;;14.29;100.00;101412.88;5049182;28;20044;-84
2022/11/02 01:46:54;;;;;;;85.93;45.50;;;;;;;14.31;100.00;101409.28;5046610;28;20073;-84
2022/11/02 01:49:21;;;;;;;89.18;43.83;;;;;;;14.34;100.00;101403.75;5039764;28;20520;-85
2022/11/02 01:51:59;;;;;;;72.82;40.58;;;;;;;14.36;100.00;101412.31;5052226;28;20039;-85
2022/11/02 01:54:28;;;;;;;73.75;39.72;;;;;;;14.39;100.00;101401.53;5049048;28;20188;-84
2022/11/02 01:57:02;;;;;;;78.57;43.28;;;;;;;14.40;100.00;101404.00;5054608;28;20025;-85
2022/11/02 01:59:43;;;;;;;71.55;41.53;;;;;;;14.39;100.00;101402.34;5053149;28;20020;-85
2022/11/02 02:02:16;;;;;;;77.30;41.13;;;;;;;14.40;100.00;101400.56;5045821;28;20029;-84
2022/11/02 02:04:42;;;;;;;67.20;39.08;;;;;;;14.40;100.00;101408.44;5046043;28;20516;-84
2022/11/02 02:07:11;;;;;;;68.53;38.30;;;;;;;14.40;100.00;101403.19;5051396;28;20029;-86
2022/11/02 02:09:36;;;;;;;78.82;41.28;;;;;;;14.38;100.00;101399.88;5054124;28;20033;-86
2022/11/02 02:12:02;;;;;;;73.78;41.05;;;;;;;14.39;100.00;101391.03;5053545;28;20146;-86
2022/11/02 02:14:28;;;;;;;92.43;48.28;;;;;;;14.39;100.00;101389.25;5042154;28;20024;-85
2022/11/02 02:17:01;;;;;;;90.93;45.58;;;;;;;14.41;100.00;101389.09;5054361;28;20043;-85
2022/11/02 02:19:31;;;;;;;83.22;45.35;;;;;;;14.41;100.00;101389.09;5045656;28;20554;-85
2022/11/02 02:22:19;;;;;;;92.47;46.83;;;;;;;14.41;100.00;101383.84;5046599;28;20521;-85
2022/11/02 02:25:09;;;;;;;76.03;42.38;;;;;;;14.42;100.00;101381.13;5052436;28;20036;-84
2022/11/02 02:28:02;;;;;;;68.78;38.17;;;;;;;14.42;100.00;101385.53;5048010;28;20248;-85
2022/11/02 02:30:33;;;;;;;71.28;39.10;;;;;;;14.43;100.00;101387.19;5045668;28;20035;-84
2022/11/02 02:33:20;;;;;;;75.75;42.45;;;;;;;14.42;100.00;101381.13;5054643;28;20025;-84
2022/11/02 02:35:55;;;;;;;81.47;42.25;;;;;;;14.40;100.00;101387.44;5045005;28;20095;-84
2022/11/02 02:38:31;;;;;;;;;;;;;;;14.34;100.00;101382.78;5058847;28;20043;-85
2022/11/02 02:41:12;;;;;;;82.88;43.03;;;;;;;14.33;100.00;101375.91;5044601;28;19927;-84
2022/11/02 02:43:42;;;;;;;76.22;43.03;;;;;;;14.29;100.00;101373.56;5053792;28;20033;-84
2022/11/02 02:46:23;;;;;;;81.10;42.85;;;;;;;14.28;100.00;101371.09;5027511;28;20039;-83
2022/11/02 02:48:51;;;;;;;90.68;46.13;;;;;;;14.27;100.00;101375.50;5041621;28;20179;-85
2022/11/02 02:51:27;;;;;;;84.20;45.83;;;;;;;14.27;100.00;101367.66;5047074;28;20033;-85
2022/11/02 02:54:05;;;;;;;72.03;43.38;;;;;;;14.19;100.00;101364.94;5031007;28;20045;-84
2022/11/02 02:56:38;;;;;;;66.32;38.85;;;;;;;14.16;100.00;101374.91;5046275;28;20043;-85
2022/11/02 02:59:16;;;;;;;80.65;41.67;;;;;;;14.12;100.00;101365.69;5034569;28;20043;-85
2022/11/02 03:01:44;;;;;;;75.18;40.00;;;;;;;14.07;100.00;101366.13;5042454;28;20532;-85
2022/11/02 03:04:13;;;;;;;69.22;42.72;;;;;;;14.01;100.00;101376.34;5048781;28;20028;-85
2022/11/02 03:06:46;;;;;;;66.60;40.92;;;;;;;13.94;100.00;101370.84;5044867;28;20377;-86
2022/11/02 03:09:25;;;;;;;68.80;40.38;;;;;;;13.82;100.00;101375.44;5036334;28;20108;-85
2022/11/02 03:12:03;;;;;;;81.20;44.05;;;;;;;13.77;100.00;101376.84;5047544;28;20481;-84
2022/11/02 03:14:43;;;;;;;78.53;44.95;;;;;;;13.80;100.00;101376.56;5058040;28;20769;-84
2022/11/02 03:17:25;;;;;;;79.03;44.00;;;;;;;13.82;100.00;101379.84;5048985;28;20131;-83
2022/11/02 03:20:02;;;;;;;88.60;46.60;;;;;;;13.83;100.00;101371.03;5031121;28;20385;-84
2022/11/02 03:22:47;;;;;;;72.82;40.67;;;;;;;13.79;100.00;101375.72;5048554;28;20052;-84
2022/11/02 03:25:23;;;;;;;80.75;40.70;;;;;;;13.72;100.00;101381.69;5047697;28;20064;-86
2022/11/02 03:28:10;;;;;;;67.05;38.63;;;;;;;13.65;100.00;101367.53;5053477;28;21578;-86
2022/11/02 03:30:43;;;;;;;68.72;38.10;;;;;;;13.60;100.00;101370.56;5049109;28;20492;-84
2022/11/02 03:33:30;;;;;;;70.45;38.20;;;;;;;13.55;100.00;101364.94;5046178;28;20039;-85
2022/11/02 03:36:09;;;;;;;67.22;39.55;;;;;;;13.52;100.00;101366.03;5035154;28;20033;-85
2022/11/02 03:38:47;;;;;;;73.00;39.67;;;;;;;13.49;100.00;101371.56;5043374;28;20544;-85
2022/11/02 03:41:15;;;;;;;70.00;38.92;;;;;;;13.46;100.00;101365.78;5035457;28;20119;-85
2022/11/02 03:43:42;;;;;;;67.45;39.13;;;;;;;13.41;100.00;101379.28;5048134;28;20021;-85
2022/11/02 03:46:09;;;;;;;75.45;38.42;;;;;;;13.35;100.00;101377.22;5050831;28;20024;-85
2022/11/02 03:48:40;;;;;;;68.78;40.00;;;;;;;13.30;100.00;101379.44;5049208;28;20036;-85
2022/11/02 03:51:13;;;;;;;75.07;40.85;;;;;;;13.32;100.00;101385.34;5045379;28;20464;-84
2022/11/02 03:53:45;;;;;;;78.70;39.83;;;;;;;13.28;100.00;101384.81;5045441;28;20029;-85
2022/11/02 03:56:20;;;;;;;70.53;39.40;;;;;;;13.31;100.00;101388.13;5048168;28;20146;-85
2022/11/02 03:58:45;;;;;;;66.45;36.55;;;;;;;13.32;100.00;101387.97;5052339;28;20044;-84
2022/11/02 04:01:11;;;;;;;71.30;39.22;;;;;;;13.29;100.00;101385.63;5035627;28;20476;-85
2022/11/02 04:03:43;;;;;;;78.85;42.65;;;;;;;13.32;100.00;101387.97;5046263;28;20064;-85
2022/11/02 04:06:09;;;;;;;79.20;41.47;;;;;;;13.41;100.00;101394.16;5058356;28;20033;-86
2022/11/02 04:08:39;;;;;;;78.82;40.72;;;;;;;13.39;100.00;101394.31;5048040;28;20025;-85
2022/11/02 04:16:33;;;;;;;75.13;39.88;;;;;;;13.45;100.00;101396.38;5048731;28;20032;-85
2022/11/02 04:25:14;;;;;;;74.07;38.55;;;;;;;13.44;100.00;101394.72;5043817;28;20080;-85
2022/11/02 04:27:12;;;;;;;71.93;37.45;;;;;;;13.44;100.00;101391.28;5052342;28;20068;-85
2022/11/02 04:29:37;;;;;;;67.28;38.35;;;;;;;13.41;100.00;101394.16;5048015;28;20465;-85
2022/11/02 04:32:03;;;;;;;74.95;40.03;;;;;;;13.43;100.00;101382.59;5049723;28;20369;-86
2022/11/02 04:34:28;;;;;;;76.90;40.58;;;;;;;13.42;100.00;101388.78;5051671;28;20525;-85
2022/11/02 04:36:54;;;;;;;76.88;42.33;;;;;;;13.45;100.00;101380.66;5058276;28;20024;-85
2022/11/02 04:39:19;;;;;;;77.95;40.20;;;;;;;13.48;100.00;101387.41;5055256;28;20036;-86
2022/11/02 04:41:45;;;;;;;80.53;39.22;;;;;;;13.51;100.00;101384.50;5035822;28;20017;-85
2022/11/02 04:44:16;;;;;;;82.80;41.75;;;;;;;13.52;100.00;101389.59;5048696;28;20021;-84
2022/11/02 04:46:42;;;;;;;81.90;42.92;;;;;;;13.54;100.00;101385.06;5047264;28;20033;-86
2022/11/02 04:49:09;;;;;;;82.38;42.90;;;;;;;13.53;100.00;101378.16;5045925;28;20036;-87
2022/11/02 04:51:35;;;;;;;89.60;45.53;;;;;;;13.54;100.00;101384.22;5051796;28;20112;-85
2022/11/02 04:54:02;;;;;;;87.30;44.33;;;;;;;13.55;100.00;101391.94;5047373;28;20523;-86
2022/11/02 04:56:29;;;;;;;102.65;47.33;;;;;;;13.67;100.00;101389.16;5048339;28;20116;-86
2022/11/02 04:58:57;;;;;;;87.72;47.25;;;;;;;13.76;100.00;101378.63;5048090;28;20039;-84
2022/11/02 05:01:24;;;;;;;77.43;40.45;;;;;;;13.81;100.00;101371.19;5038083;28;20029;-85
2022/11/02 05:03:51;;;;;;;82.50;43.30;;;;;;;13.83;100.00;101376.28;5053024;28;20111;-85
2022/11/02 05:06:19;;;;;;;81.63;42.83;;;;;;;13.87;100.00;101378.47;5046588;28;20110;-86
2022/11/02 05:08:44;;;;;;;82.50;43.20;;;;;;;13.89;100.00;101379.16;5029089;28;20068;-85
2022/11/02 05:11:11;;;;;;;81.35;43.28;;;;;;;13.89;100.00;101378.31;5029035;28;20071;-85
2022/11/02 05:13:37;;;;;;;65.85;38.35;;;;;;;13.86;100.00;101378.59;5041986;28;20029;-85
2022/11/02 05:16:04;;;;;;;74.38;42.03;;;;;;;13.83;100.00;101373.66;5048756;28;20047;-85
2022/11/02 05:18:29;;;;;;;60.67;34.83;;;;;;;13.81;100.00;101378.22;5044727;28;20029;-85
2022/11/02 05:20:59;;;;;;;70.30;39.78;;;;;;;13.77;100.00;101382.06;5026935;28;20041;-84
2022/11/02 05:23:25;;;;;;;74.32;40.38;;;;;;;13.74;100.00;101388.44;5007255;28;20029;-86
2022/11/02 05:25:59;;;;;;;76.97;41.58;;;;;;;13.69;100.00;101392.47;5030054;28;20044;-85
2022/11/02 05:28:25;;;;;;;76.15;41.05;;;;;;;13.66;100.00;101398.81;5031272;28;20527;-85
2022/11/02 05:30:51;;;;;;;79.15;44.30;;;;;;;13.64;100.00;101394.69;5031951;28;20113;-84
2022/11/02 05:33:18;;;;;;;77.50;40.15;;;;;;;13.61;100.00;101407.09;5030901;28;20108;-86
2022/11/02 05:35:43;;;;;;;74.75;40.90;;;;;;;13.61;100.00;101396.63;5013683;28;20022;-84
2022/11/02 05:38:09;;;;;;;76.32;41.15;;;;;;;13.63;100.00;101400.88;5033251;28;20034;-86
2022/11/02 05:40:36;;;;;;;83.88;43.53;;;;;;;13.66;100.00;101403.22;5031977;28;20401;-87
2022/11/02 05:43:03;;;;;;;89.20;44.83;;;;;;;13.65;100.00;101409.44;5031660;28;20088;-85
2022/11/02 05:45:29;;;;;;;87.78;42.95;;;;;;;13.61;100.00;101407.09;5031548;28;20026;-85
2022/11/02 05:47:55;;;;;;;92.63;45.30;;;;;;;13.55;100.00;101412.88;5031650;28;20029;-85
2022/11/02 05:50:20;;;;;;;93.13;47.03;;;;;;;13.54;100.00;101415.66;5031207;28;20404;-85
2022/11/02 05:52:46;;;;;;;85.65;45.78;;;;;;;13.55;100.00;101420.75;5031274;28;20564;-84
2022/11/02 05:55:12;;;;;;;100.65;48.42;;;;;;;13.58;100.00;101420.47;5013061;28;20540;-85
2022/11/02 05:57:38;;;;;;;90.93;48.53;;;;;;;13.62;100.00;101428.88;5031428;28;20097;-85
2022/11/02 06:00:05;;;;;;;92.82;47.03;;;;;;;13.64;100.00;101431.34;5031116;28;20025;-84
2022/11/02 06:02:33;;;;;;;84.95;46.50;;;;;;;13.65;100.00;101430.38;5026432;28;20390;-84
2022/11/02 06:04:58;;;;;;;91.57;45.42;;;;;;;13.66;100.00;101430.25;5024595;28;20025;-85
2022/11/02 06:07:26;;;;;;;97.53;47.67;;;;;;;13.70;100.00;101443.88;5012428;28;20033;-87
2022/11/02 06:09:52;;;;;;;90.53;45.55;;;;;;;13.71;100.00;101435.03;5027081;28;20033;-86
2022/11/02 06:12:17;;;;;;;82.07;43.20;;;;;;;13.71;100.00;101442.88;5025607;28;20031;-86
2022/11/02 06:14:43;;;;;;;82.93;43.17;;;;;;;13.69;100.00;101444.84;5029988;28;20057;-85
2022/11/02 06:17:08;;;;;;;80.82;41.53;;;;;;;13.69;100.00;101456.16;5011981;28;20037;-85
2022/11/02 06:19:34;;;;;;;68.00;38.30;;;;;;;13.70;100.00;101449.94;5029495;28;20099;-86
2022/11/02 06:21:59;;;;;;;72.53;39.50;;;;;;;13.73;100.00;101451.41;5042093;28;20052;-86
2022/11/02 06:24:24;;;;;;;61.90;34.83;;;;;;;13.75;100.00;101455.56;5032350;28;20040;-85
2022/11/02 06:26:50;;;;;;;76.45;41.53;;;;;;;13.76;100.00;101459.00;5031685;28;20036;-84
2022/11/02 06:29:16;;;;;;;74.82;41.70;;;;;;;13.80;100.00;101461.19;5048993;28;20484;-85
2022/11/02 06:31:42;;;;;;;71.45;40.95;;;;;;;13.81;100.00;101470.72;5029910;28;20036;-86
2022/11/02 06:34:07;;;;;;;77.68;42.80;;;;;;;13.79;100.00;101474.44;5053064;28;20025;-87
2022/11/02 06:36:32;;;;;;;76.85;42.75;;;;;;;13.81;100.00;101470.72;5031488;28;20097;-85
2022/11/02 06:38:58;;;;;;;82.55;41.72;;;;;;;13.87;100.00;101470.16;5049878;28;20025;-86
2022/11/02 06:41:23;;;;;;;80.28;42.97;;;;;;;13.97;100.00;101477.16;5032724;28;20036;-85
2022/11/02 06:43:49;;;;;;;83.60;43.42;;;;;;;14.03;100.00;101485.28;5048406;28;20020;-85
2022/11/02 06:46:14;;;;;;;79.57;44.92;;;;;;;14.07;100.00;101481.41;5050016;28;20047;-84
2022/11/02 06:48:40;;;;;;;82.82;44.65;;;;;;;14.07;100.00;101481.41;5049044;28;20159;-84
2022/11/02 06:51:06;;;;;;;79.18;42.05;;;;;;;14.09;100.00;101487.34;5032667;28;20384;-85
2022/11/02 06:53:32;;;;;;;80.28;44.47;;;;;;;14.13;100.00;101495.75;5050284;28;20031;-84
2022/11/02 06:55:58;;;;;;;80.85;42.90;;;;;;;14.16;100.00;101496.28;5051495;28;20540;-86
2022/11/02 06:58:25;;;;;;;71.50;43.13;;;;;;;14.16;100.00;101496.28;5047911;28;20489;-85
2022/11/02 07:00:56;;;;;;;75.18;42.08;;;;;;;14.17;100.00;101495.31;5048630;28;20029;-86
2022/11/02 07:03:22;;;;;;;74.50;42.10;;;;;;;14.23;100.00;101499.97;5051949;28;20029;-84
2022/11/02 07:05:51;;;;;;;71.72;42.40;;;;;;;14.29;100.00;101491.53;5050581;28;20036;-85
2022/11/02 07:08:17;;;;;;;62.03;39.50;;;;;;;14.35;100.00;101497.16;5050374;28;20108;-84
2022/11/02 07:10:43;;;;;;;72.03;40.78;;;;;;;14.38;100.00;101502.94;5039132;28;20032;-85
2022/11/02 07:13:09;;;;;;;68.15;41.38;;;;;;;14.44;100.00;101506.81;5059341;28;20507;-85
2022/11/02 07:15:34;;;;;;;67.60;38.08;;;;;;;14.47;100.00;101510.00;5051172;28;20033;-84
2022/11/02 07:17:59;;;;;;;66.53;39.65;;;;;;;14.51;100.00;101507.91;5030401;28;20028;-85
2022/11/02 07:20:25;;;;;;;70.78;41.45;;;;;;;14.56;100.00;101517.00;5049143;28;20071;-84
2022/11/02 07:22:59;;;;;;;73.55;41.28;;;;;;;14.60;100.00;101514.91;5048916;28;20056;-85
2022/11/02 07:25:26;;;;;;;68.85;38.70;;;;;;;14.66;100.00;101513.47;5048793;28;20029;-86
2022/11/02 07:27:52;;;;;;;71.78;40.35;;;;;;;14.70;100.00;101514.84;5049098;28;20056;-85
2022/11/02 07:30:18;;;;;;;68.35;38.50;;;;;;;14.73;100.00;101509.31;5029813;28;20460;-84
2022/11/02 07:32:45;;;;;;;74.22;40.58;;;;;;;14.76;100.00;101509.00;5048492;28;20029;-85
2022/11/02 07:35:12;;;;;;;69.22;38.55;;;;;;;14.79;100.00;101514.78;5048795;28;20025;-85
2022/11/02 07:37:38;;;;;;;63.53;37.20;;;;;;;14.82;100.00;101508.44;5048790;28;20025;-84
2022/11/02 07:40:05;;;;;;;64.50;37.33;;;;;;;14.86;100.00;101513.25;5047349;28;20036;-84
2022/11/02 07:42:31;;;;;;;68.70;38.72;;;;;;;14.87;100.00;101511.44;5048525;28;20516;-85
2022/11/02 07:44:56;;;;;;;71.03;37.97;;;;;;;14.90;100.00;101516.41;5047846;28;20024;-84
2022/11/02 07:47:22;;;;;;;58.85;36.17;;;;;;;14.91;100.00;101513.63;5048404;28;20575;-81
2022/11/02 07:49:47;;;;;;;61.50;37.42;;;;;;;14.95;100.00;101511.53;5053736;28;20029;-80
2022/11/02 07:52:13;;;;;;;64.55;38.08;;;;;;;15.00;100.00;101505.84;5053560;28;20558;-81
2022/11/02 07:54:38;;;;;;;63.70;38.22;;;;;;;15.06;100.00;101507.88;5048145;28;20074;-81
2022/11/02 07:57:04;;;;;;;64.72;38.88;;;;;;;15.07;100.00;101506.91;5048557;28;20024;-80
2022/11/02 07:59:29;;;;;;;65.18;37.63;;;;;;;15.10;100.00;101501.38;5047015;28;20066;-81
2022/11/02 08:01:55;;;;;;;65.85;38.45;;;;;;;15.17;100.00;101502.38;5048098;28;20025;-81
2022/11/02 08:04:20;;;;;;;66.85;39.60;;;;;;;15.18;100.00;101506.66;5055567;28;20028;-81
2022/11/02 08:06:46;;;;;;;64.28;38.58;;;;;;;15.18;100.00;101504.03;5047854;28;20129;-80
2022/11/02 08:09:11;;;;;;;63.95;37.28;;;;;;;15.19;100.00;101505.69;5047755;28;20036;-81
2022/11/02 08:11:36;;;;;;;69.45;38.40;;;;;;;15.23;100.00;101512.28;5048013;28;20463;-80
2022/11/02 08:14:02;;;;;;;62.78;37.80;;;;;;;15.30;100.00;101517.78;5047618;28;20025;-80
2022/11/02 08:16:28;;;;;;;64.72;37.45;;;;;;;15.34;100.00;101508.63;5048215;28;20032;-81
2022/11/02 08:18:54;;;;;;;62.35;38.28;;;;;;;15.39;100.00;101517.72;5053596;28;20032;-81
2022/11/02 08:21:19;;;;;;;70.60;38.10;;;;;;;15.42;100.00;101517.41;5051089;28;20051;-85
2022/11/02 08:23:45;;;;;;;62.70;38.80;;;;;;;15.42;100.00;101506.09;5047932;28;20056;-85
2022/11/02 08:26:11;;;;;;;66.40;38.05;;;;;;;15.45;100.00;101516.28;5047821;28;20063;-84
2022/11/02 08:28:39;;;;;;;63.35;37.22;;;;;;;15.53;100.00;101513.75;5027060;28;20163;-85
2022/11/02 08:31:06;;;;;;;62.92;37.05;;;;;;;15.63;100.00;101506.59;5045338;28;20100;-85
2022/11/02 08:33:32;;;;;;;74.93;37.55;;;;;;;15.70;100.00;101506.81;5032285;28;20484;-86
2022/11/02 08:36:02;;;;;;;61.30;37.58;;;;;;;15.71;100.00;101509.31;5054210;28;20029;-85
2022/11/02 08:38:28;;;;;;;61.28;36.53;;;;;;;15.73;100.00;101507.34;5029405;28;20159;-86
2022/11/02 08:40:54;;;;;;;62.08;35.70;;;;;;;15.86;100.00;101499.91;5047532;28;20096;-85
2022/11/02 08:43:19;;;;;;;64.00;36.80;;;;;;;15.90;100.00;101505.66;5047123;28;20048;-85
2022/11/02 08:45:45;;;;;;;58.63;36.95;;;;;;;15.90;100.00;101495.97;5048719;28;20477;-86
2022/11/02 08:48:11;;;;;;;72.70;38.38;;;;;;;15.93;100.00;101497.47;5057622;28;20250;-86
2022/11/02 08:50:36;;;;;;;59.85;36.25;;;;;;;15.94;100.00;101493.88;5051508;28;20025;-86
2022/11/02 08:53:03;;;;;;;59.03;37.00;;;;;;;16.00;100.00;101493.25;5029482;28;20564;-86
2022/11/02 08:55:29;;;;;;;61.50;37.35;;;;;;;16.04;100.00;101491.97;5047492;28;20083;-85
2022/11/02 08:57:56;;;;;;;63.03;37.35;;;;;;;16.07;100.00;101491.63;5046249;28;20072;-85
2022/11/02 09:00:24;;;;;;;59.15;37.25;;;;;;;16.09;100.00;101488.84;5046042;28;20068;-85
2022/11/02 09:02:59;;;;;;;60.65;38.25;;;;;;;16.15;100.00;101494.31;5045437;28;20028;-85
2022/11/02 09:05:24;;;;;;;63.40;37.33;;;;;;;16.22;100.00;101489.25;5026157;28;20036;-86
2022/11/02 09:07:57;;;;;;;65.10;38.90;;;;;;;16.26;100.00;101488.78;5033554;28;20051;-85
2022/11/02 09:10:23;;;;;;;63.10;39.25;;;;;;;16.31;100.00;101490.13;5049437;28;20108;-86
2022/11/02 09:12:49;;;;;;;57.35;37.92;;;;;;;16.30;100.00;101491.94;5042068;28;20106;-85
2022/11/02 09:15:14;;;;;;;57.25;36.75;;;;;;;16.34;100.00;101484.56;5057780;28;20103;-87
2022/11/02 09:17:40;;;;;;;61.97;39.30;;;;;;;16.35;100.00;101489.66;5068872;28;20459;-86
2022/11/02 09:20:06;;;;;;;52.45;33.38;;;;;;;16.37;100.00;101487.69;5045815;28;20033;-86
2022/11/02 09:22:31;;;;;;;60.88;36.38;;;;;;;16.43;100.00;101487.06;5032297;28;20461;-85
2022/11/02 09:24:57;;;;;;;61.35;37.08;;;;;;;16.47;100.00;101487.59;5046809;28;20025;-85
2022/11/02 09:27:22;;;;;;;54.42;36.95;;;;;;;16.44;100.00;101486.09;5027579;28;20388;-85
2022/11/02 09:29:47;;;;;;;57.88;37.22;;;;;;;16.41;100.00;101482.94;5045906;28;20504;-86
2022/11/02 09:32:13;;;;;;;56.58;35.67;;;;;;;16.42;100.00;101482.78;5045891;28;20392;-85
2022/11/02 09:34:38;;;;;;;55.92;36.55;;;;;;;16.42;100.00;101474.06;5033789;28;20375;-85
2022/11/02 09:37:04;;;;;;;54.72;35.90;;;;;;;16.42;100.00;101477.53;5014139;28;20100;-85
2022/11/02 09:39:29;;;;;;;57.30;36.75;;;;;;;16.44;100.00;101478.19;5034016;28;20037;-86
2022/11/02 09:42:10;;;;;;;58.20;38.03;;;;;;;16.48;100.00;101469.00;5027639;28;20044;-85
2022/11/02 09:44:41;;;;;;;57.63;36.70;;;;;;;16.54;100.00;101472.81;5043685;28;20069;-85
2022/11/02 09:47:10;;;;;;;58.28;36.03;;;;;;;16.54;100.00;101475.44;5046150;28;20086;-85
2022/11/02 09:49:36;;;;;;;57.95;39.20;;;;;;;16.54;100.00;101467.56;5025131;28;20082;-85
2022/11/02 09:52:02;;;;;;;56.17;36.45;;;;;;;16.57;100.00;101465.41;5049830;28;20037;-86
2022/11/02 09:54:35;;;;;;;56.45;36.38;;;;;;;16.60;100.00;101464.25;5045391;28;20713;-86
2022/11/02 09:57:07;;;;;;;52.42;34.63;;;;;;;16.64;100.00;101467.41;5039940;28;20033;-85
2022/11/02 09:59:33;;;;;;;54.85;35.47;;;;;;;16.65;100.00;101454.13;5042089;28;20446;-86
2022/11/02 10:02:15;;;;;;;54.58;37.15;;;;;;;16.70;100.00;101458.91;5022001;28;20124;-86
2022/11/02 10:05:01;;;;;;;55.22;36.20;;;;;;;16.71;100.00;101457.91;5046590;28;20033;-86
2022/11/02 10:07:39;;;;;;;51.83;33.05;;;;;;;16.74;100.00;101453.16;5043103;28;20037;-85
2022/11/02 10:10:09;;;;;;;54.70;34.75;;;;;;;16.80;100.00;101454.31;5023118;28;20391;-85
2022/11/02 10:13:16;;;;;;;51.65;34.15;;;;;;;16.85;100.00;101446.78;5027520;28;20037;-85
2022/11/02 10:15:52;;;;;;;55.78;34.17;;;;;;;16.87;100.00;101448.25;5024094;28;20278;-86
2022/11/02 10:18:23;;;;;;;48.83;33.00;;;;;;;16.88;100.00;101443.81;5047907;28;20057;-85
2022/11/02 10:20:52;;;;;;;50.13;31.67;;;;;;;16.91;100.00;101441.69;5055664;28;20025;-85
2022/11/02 10:23:30;;;;;;;52.85;32.50;;;;;;;16.99;100.00;101440.06;5030599;28;20512;-86
2022/11/02 10:25:55;;;;;;;49.08;33.38;;;;;;;17.13;100.00;101439.41;5049327;28;20039;-85
2022/11/02 10:28:26;;;;;;;52.67;33.03;;;;;;;17.16;100.00;101432.00;5031113;28;20249;-86
2022/11/02 10:30:53;;;;;;;51.25;30.75;;;;;;;17.13;100.00;101432.31;5029847;28;20028;-86
2022/11/02 10:33:27;;;;;;;50.42;32.40;;;;;;;17.13;100.00;101427.06;5048938;28;20157;-85
2022/11/02 10:36:20;;;;;;;50.83;31.75;;;;;;;17.22;100.00;101425.25;5048031;28;20051;-85
2022/11/02 10:39:04;;;;;;;47.65;29.75;;;;;;;17.22;100.00;101419.97;5049135;28;20028;-85
2022/11/02 10:41:52;;;;;;;48.67;30.35;;;;;;;17.21;100.00;101419.16;5029562;28;20029;-85
2022/11/02 10:44:40;;;;;;;48.08;29.15;;;;;;;17.31;100.00;101416.38;5048875;28;20132;-86
2022/11/02 10:47:24;;;;;;;45.08;28.48;;;;;;;17.33;100.00;101417.03;5020397;28;20047;-86
2022/11/02 10:50:16;;;;;;;49.95;27.83;;;;;;;17.32;100.00;101409.28;5048183;28;20029;-85
2022/11/02 10:52:44;;;;;;;43.70;26.08;;;;;;;17.40;100.00;101410.09;5028998;28;20398;-85
2022/11/02 10:55:39;;;;;;;34.78;20.52;;;;;;;17.56;100.00;101396.91;5048764;28;20029;-85
2022/11/02 10:58:08;;;;;;;36.28;22.77;;;;;;;17.65;100.00;101400.38;5020851;28;20364;-85
2022/11/02 11:00:35;;;;;;;40.35;24.10;;;;;;;17.71;100.00;101398.88;5052466;28;20111;-86
2022/11/02 11:03:12;;;;;;;40.03;25.13;;;;;;;17.75;100.00;101390.47;5048830;28;20143;-85
2022/11/02 11:05:55;;;;;;;35.10;24.27;;;;;;;17.82;100.00;101387.97;5041364;28;20539;-86
2022/11/02 11:08:38;;;;;;;40.40;25.35;;;;;;;17.81;100.00;101386.34;5022295;28;20036;-86
2022/11/02 11:11:09;;;;;;;38.78;25.48;;;;;;;17.86;100.00;101387.47;5048078;28;20048;-86
2022/11/02 11:13:35;;;;;;;50.05;29.33;;;;;;;17.91;100.00;101379.06;5030442;28;20037;-86
2022/11/02 11:16:02;;;;;;;47.63;27.48;;;;;;;17.86;100.00;101378.75;5030091;28;20028;-86
2022/11/02 11:18:28;;;;;;;42.85;27.75;;;;;;;17.81;100.00;101373.97;5048722;28;20021;-86
2022/11/02 11:20:55;;;;;;;47.03;28.73;;;;;;;17.80;100.00;101371.50;5058638;28;20122;-85
2022/11/02 11:23:23;;;;;;;40.03;26.88;;;;;;;17.87;100.00;101356.66;5030590;28;20086;-86